sensor_id;sensor_type;location;lat;lon;timestamp;pressure;altitude;pressure_sealevel;temperature;humidity
6347;BME280;3206;42.666;23.600;2022-08-18T00:00:50;95042.94;;;19.25;100.00
6347;BME280;3206;42.666;23.600;2022-08-18T00:03:20;95025.94;;;19.14;100.00
6347;BME280;3206;42.666;23.600;2022-08-18T00:05:47;95036.41;;;19.12;100.00
6347;BME280;3206;42.666;23.600;2022-08-18T00:08:13;95039.88;;;19.16;100.00
6347;BME280;3206;42.666;23.600;2022-08-18T00:10:41;95033.66;;;19.23;100.00
6347;BME280;3206;42.666;23.600;2022-08-18T00:13:08;95038.31;;;19.15;100.00
6347;BME280;3206;42.666;23.600;2022-08-18T00:15:34;95044.53;;;19.12;100.00
6347;BME280;3206;42.666;23.600;2022-08-18T00:18:01;95034.47;;;19.16;100.00
6347;BME280;3206;42.666;23.600;2022-08-18T00:20:29;95044.91;;;19.14;100.00
6347;BME280;3206;42.666;23.600;2022-08-18T00:22:56;95043.78;;;19.08;100.00
6347;BME280;3206;42.666;23.600;2022-08-18T00:25:23;95042.25;;;19.11;100.00
6347;BME280;3206;42.666;23.600;2022-08-18T00:27:50;95043.00;;;19.11;100.00
6347;BME280;3206;42.666;23.600;2022-08-18T00:30:18;95046.06;;;19.13;100.00
6347;BME280;3206;42.666;23.600;2022-08-18T00:32:48;95051.13;;;19.08;100.00
6347;BME280;3206;42.666;23.600;2022-08-18T00:35:19;95046.13;;;19.06;100.00
6347;BME280;3206;42.666;23.600;2022-08-18T00:37:48;95046.13;;;19.06;100.00
6347;BME280;3206;42.666;23.600;2022-08-18T00:40:18;95044.97;;;19.00;100.00
6347;BME280;3206;42.666;23.600;2022-08-18T00:42:47;95046.19;;;18.93;100.00
6347;BME280;3206;42.666;23.600;2022-08-18T00:45:22;95045.41;;;18.92;100.00
6347;BME280;3206;42.666;23.600;2022-08-18T00:47:50;95045.06;;;18.83;100.00
6347;BME280;3206;42.666;23.600;2022-08-18T00:50:20;95037.38;;;18.75;100.00
6347;BME280;3206;42.666;23.600;2022-08-18T00:52:52;95051.69;;;18.72;100.00
6347;BME280;3206;42.666;23.600;2022-08-18T00:55:22;95049.72;;;18.76;100.00
6347;BME280;3206;42.666;23.600;2022-08-18T00:57:51;95043.16;;;18.70;100.00
6347;BME280;3206;42.666;23.600;2022-08-18T01:00:20;95059.03;;;18.64;100.00
6347;BME280;3206;42.666;23.600;2022-08-18T01:02:52;95030.06;;;18.58;100.00
6347;BME280;3206;42.666;23.600;2022-08-18T01:05:24;95043.94;;;18.67;100.00
6347;BME280;3206;42.666;23.600;2022-08-18T01:07:54;95044.72;;;18.71;100.00
6347;BME280;3206;42.666;23.600;2022-08-18T01:10:22;95049.72;;;18.69;100.00
6347;BME280;3206;42.666;23.600;2022-08-18T01:12:51;95046.69;;;18.53;100.00
6347;BME280;3206;42.666;23.600;2022-08-18T01:15:21;95025.84;;;18.50;100.00
6347;BME280;3206;42.666;23.600;2022-08-18T01:17:49;95057.91;;;18.55;100.00
6347;BME280;3206;42.666;23.600;2022-08-18T01:20:35;95030.91;;;18.41;100.00
6347;BME280;3206;42.666;23.600;2022-08-18T01:23:23;95059.84;;;18.54;100.00
6347;BME280;3206;42.666;23.600;2022-08-18T01:25:51;95052.09;;;18.56;100.00
6347;BME280;3206;42.666;23.600;2022-08-18T01:28:29;95051.75;;;18.47;100.00
6347;BME280;3206;42.666;23.600;2022-08-18T01:30:58;95035.16;;;18.35;100.00
6347;BME280;3206;42.666;23.600;2022-08-18T01:33:26;95065.63;;;18.53;100.00
6347;BME280;3206;42.666;23.600;2022-08-18T01:35:59;95056.75;;;18.49;100.00
6347;BME280;3206;42.666;23.600;2022-08-18T01:38:29;95052.13;;;18.18;100.00
6347;BME280;3206;42.666;23.600;2022-08-18T01:40:57;95046.38;;;18.30;100.00
6347;BME280;3206;42.666;23.600;2022-08-18T01:43:24;95025.91;;;18.22;100.00
6347;BME280;3206;42.666;23.600;2022-08-18T01:45:51;95047.16;;;18.30;100.00
6347;BME280;3206;42.666;23.600;2022-08-18T01:48:18;95039.00;;;18.20;100.00
6347;BME280;3206;42.666;23.600;2022-08-18T01:50:44;95047.13;;;18.23;100.00
6347;BME280;3206;42.666;23.600;2022-08-18T01:53:13;95046.34;;;18.19;100.00
6347;BME280;3206;42.666;23.600;2022-08-18T01:55:42;95041.31;;;18.18;100.00
6347;BME280;3206;42.666;23.600;2022-08-18T01:58:14;95041.72;;;18.20;100.00
6347;BME280;3206;42.666;23.600;2022-08-18T02:00:41;95050.22;;;18.15;100.00
6347;BME280;3206;42.666;23.600;2022-08-18T02:03:11;95050.22;;;18.15;100.00
6347;BME280;3206;42.666;23.600;2022-08-18T02:05:42;95048.69;;;18.14;100.00
6347;BME280;3206;42.666;23.600;2022-08-18T02:08:10;95047.50;;;18.15;100.00
6347;BME280;3206;42.666;23.600;2022-08-18T02:10:37;95048.69;;;18.14;100.00
6347;BME280;3206;42.666;23.600;2022-08-18T02:13:06;95044.44;;;17.99;100.00
6347;BME280;3206;42.666;23.600;2022-08-18T02:15:34;95042.50;;;18.03;100.00
6347;BME280;3206;42.666;23.600;2022-08-18T02:18:01;95037.09;;;18.03;100.00
6347;BME280;3206;42.666;23.600;2022-08-18T02:20:27;95044.81;;;18.01;100.00
6347;BME280;3206;42.666;23.600;2022-08-18T02:22:54;95045.97;;;18.00;100.00
6347;BME280;3206;42.666;23.600;2022-08-18T02:25:23;95037.88;;;18.00;100.00
6347;BME280;3206;42.666;23.600;2022-08-18T02:27:50;95038.66;;;17.97;100.00
6347;BME280;3206;42.666;23.600;2022-08-18T02:30:18;95038.28;;;17.95;100.00
6347;BME280;3206;42.666;23.600;2022-08-18T02:32:44;95044.06;;;17.90;100.00
6347;BME280;3206;42.666;23.600;2022-08-18T02:35:11;95043.28;;;17.93;100.00
6347;BME280;3206;42.666;23.600;2022-08-18T02:37:38;95049.09;;;17.84;100.00
6347;BME280;3206;42.666;23.600;2022-08-18T02:40:06;95037.09;;;17.78;100.00
6347;BME280;3206;42.666;23.600;2022-08-18T02:42:34;95038.28;;;17.84;100.00
6347;BME280;3206;42.666;23.600;2022-08-18T02:45:06;95036.34;;;17.74;100.00
6347;BME280;3206;42.666;23.600;2022-08-18T02:47:34;95046.00;;;17.72;100.00
6347;BME280;3206;42.666;23.600;2022-08-18T02:50:01;95042.50;;;17.68;100.00
6347;BME280;3206;42.666;23.600;2022-08-18T02:52:28;95044.06;;;17.83;100.00
6347;BME280;3206;42.666;23.600;2022-08-18T02:54:57;95043.28;;;17.79;100.00
6347;BME280;3206;42.666;23.600;2022-08-18T02:57:23;95044.81;;;17.87;100.00
6347;BME280;3206;42.666;23.600;2022-08-18T02:59:50;95045.59;;;17.84;100.00
6347;BME280;3206;42.666;23.600;2022-08-18T03:02:17;95048.31;;;17.80;100.00
6347;BME280;3206;42.666;23.600;2022-08-18T03:04:45;95047.91;;;17.82;100.00
6347;BME280;3206;42.666;23.600;2022-08-18T03:07:13;95056.81;;;17.79;100.00
6347;BME280;3206;42.666;23.600;2022-08-18T03:09:40;95054.47;;;17.70;100.00
6347;BME280;3206;42.666;23.600;2022-08-18T03:12:08;95057.56;;;17.69;100.00
6347;BME280;3206;42.666;23.600;2022-08-18T03:14:36;95046.00;;;17.58;100.00
6347;BME280;3206;42.666;23.600;2022-08-18T03:17:06;95054.47;;;17.46;100.00
6347;BME280;3206;42.666;23.600;2022-08-18T03:19:33;95057.16;;;17.42;100.00
6347;BME280;3206;42.666;23.600;2022-08-18T03:22:01;95053.59;;;17.21;100.00
6347;BME280;3206;42.666;23.600;2022-08-18T03:24:30;95063.66;;;17.31;100.00
6347;BME280;3206;42.666;23.600;2022-08-18T03:26:57;95065.63;;;17.37;100.00
6347;BME280;3206;42.666;23.600;2022-08-18T03:29:25;95067.13;;;17.28;100.00
6347;BME280;3206;42.666;23.600;2022-08-18T03:31:52;95067.91;;;17.32;100.00
6347;BME280;3206;42.666;23.600;2022-08-18T03:34:19;95071.00;;;17.34;100.00
6347;BME280;3206;42.666;23.600;2022-08-18T03:36:47;95057.03;;;17.01;100.00
6347;BME280;3206;42.666;23.600;2022-08-18T03:39:17;95066.28;;;17.00;100.00
6347;BME280;3206;42.666;23.600;2022-08-18T03:41:45;95065.50;;;17.02;100.00
6347;BME280;3206;42.666;23.600;2022-08-18T03:44:13;95060.78;;;16.75;100.00
6347;BME280;3206;42.666;23.600;2022-08-18T03:46:41;95062.78;;;16.99;100.00
6347;BME280;3206;42.666;23.600;2022-08-18T03:49:09;95065.13;;;17.04;100.00
6347;BME280;3206;42.666;23.600;2022-08-18T03:51:36;95074.75;;;16.98;100.00
6347;BME280;3206;42.666;23.600;2022-08-18T03:54:04;95063.94;;;16.91;100.00
6347;BME280;3206;42.666;23.600;2022-08-18T03:56:34;95063.88;;;16.77;100.00
6347;BME280;3206;42.666;23.600;2022-08-18T03:59:05;95059.97;;;16.71;100.00
6347;BME280;3206;42.666;23.600;2022-08-18T04:01:36;95069.69;;;16.83;100.00
6347;BME280;3206;42.666;23.600;2022-08-18T04:04:07;95060.38;;;16.77;100.00
6347;BME280;3206;42.666;23.600;2022-08-18T04:06:37;95066.25;;;16.89;100.00
6347;BME280;3206;42.666;23.600;2022-08-18T04:09:06;95069.28;;;16.84;100.00
6347;BME280;3206;42.666;23.600;2022-08-18T04:11:36;95074.75;;;16.98;100.00
6347;BME280;3206;42.666;23.600;2022-08-18T04:14:04;95078.25;;;17.05;100.00
6347;BME280;3206;42.666;23.600;2022-08-18T04:16:31;95085.97;;;17.07;100.00
6347;BME280;3206;42.666;23.600;2022-08-18T04:18:59;95080.19;;;17.12;100.00
6347;BME280;3206;42.666;23.600;2022-08-18T04:21:28;95085.25;;;17.24;100.00
6347;BME280;3206;42.666;23.600;2022-08-18T04:23:58;95087.22;;;17.34;100.00
6347;BME280;3206;42.666;23.600;2022-08-18T04:26:29;95084.53;;;17.44;100.00
6347;BME280;3206;42.666;23.600;2022-08-18T04:28:58;95083.78;;;17.54;100.00
6347;BME280;3206;42.666;23.600;2022-08-18T04:31:27;95091.53;;;17.63;100.00
6347;BME280;3206;42.666;23.600;2022-08-18T04:33:55;95086.50;;;17.58;100.00
6347;BME280;3206;42.666;23.600;2022-08-18T04:36:23;95087.28;;;17.72;100.00
6347;BME280;3206;42.666;23.600;2022-08-18T04:38:50;95085.38;;;17.80;100.00
6347;BME280;3206;42.666;23.600;2022-08-18T04:41:17;95089.22;;;17.86;100.00
6347;BME280;3206;42.666;23.600;2022-08-18T04:43:44;95093.47;;;17.87;100.00
6347;BME280;3206;42.666;23.600;2022-08-18T04:46:13;95095.78;;;17.85;100.00
6347;BME280;3206;42.666;23.600;2022-08-18T04:48:40;95103.50;;;17.97;100.00
6347;BME280;3206;42.666;23.600;2022-08-18T04:51:09;95098.88;;;18.04;100.00
6347;BME280;3206;42.666;23.600;2022-08-18T04:53:37;95101.97;;;18.06;100.00
6347;BME280;3206;42.666;23.600;2022-08-18T04:56:18;95105.44;;;18.14;100.00
6347;BME280;3206;42.666;23.600;2022-08-18T04:58:50;95107.00;;;18.29;100.00
6347;BME280;3206;42.666;23.600;2022-08-18T05:01:19;95105.47;;;18.38;100.00
6347;BME280;3206;42.666;23.600;2022-08-18T05:03:47;95113.94;;;18.58;100.00
6347;BME280;3206;42.666;23.600;2022-08-18T05:06:15;95101.16;;;18.62;100.00
6347;BME280;3206;42.666;23.600;2022-08-18T05:08:42;95113.50;;;18.70;100.00
6347;BME280;3206;42.666;23.600;2022-08-18T05:11:08;95113.84;;;18.89;100.00
6347;BME280;3206;42.666;23.600;2022-08-18T05:13:35;95111.91;;;18.97;100.00
6347;BME280;3206;42.666;23.600;2022-08-18T05:16:02;95113.38;;;19.18;100.00
6347;BME280;3206;42.666;23.600;2022-08-18T05:18:32;95108.69;;;19.33;100.00
6347;BME280;3206;42.666;23.600;2022-08-18T05:21:03;95114.03;;;19.43;100.00
6347;BME280;3206;42.666;23.600;2022-08-18T05:23:30;95125.63;;;19.51;100.00
6347;BME280;3206;42.666;23.600;2022-08-18T05:25:57;95125.50;;;19.72;100.00
6347;BME280;3206;42.666;23.600;2022-08-18T05:28:25;95126.97;;;19.83;100.00
6347;BME280;3206;42.666;23.600;2022-08-18T05:30:51;95133.84;;;19.98;100.00
6347;BME280;3206;42.666;23.600;2022-08-18T05:33:18;95129.16;;;20.09;100.00
6347;BME280;3206;42.666;23.600;2022-08-18T05:35:49;95134.06;;;20.25;100.00
6347;BME280;3206;42.666;23.600;2022-08-18T05:38:37;95132.81;;;20.36;100.00
6347;BME280;3206;42.666;23.600;2022-08-18T05:41:08;95137.41;;;20.43;100.00
6347;BME280;3206;42.666;23.600;2022-08-18T05:43:37;95128.56;;;20.35;100.00
6347;BME280;3206;42.666;23.600;2022-08-18T05:46:06;95136.88;;;21.32;100.00
6347;BME280;3206;42.666;23.600;2022-08-18T05:48:33;95143.69;;;21.47;100.00
6347;BME280;3206;42.666;23.600;2022-08-18T05:51:11;95143.03;;;21.96;100.00
6347;BME280;3206;42.666;23.600;2022-08-18T05:53:40;95142.66;;;22.47;100.00
6347;BME280;3206;42.666;23.600;2022-08-18T05:56:27;95130.59;;;22.71;100.00
6347;BME280;3206;42.666;23.600;2022-08-18T05:59:17;95139.63;;;22.87;100.00
6347;BME280;3206;42.666;23.600;2022-08-18T06:01:49;95147.84;;;22.64;100.00
6347;BME280;3206;42.666;23.600;2022-08-18T06:04:25;95136.63;;;22.36;100.00
6347;BME280;3206;42.666;23.600;2022-08-18T06:06:55;95142.88;;;22.33;100.00
6347;BME280;3206;42.666;23.600;2022-08-18T06:09:25;95147.59;;;22.55;100.00
6347;BME280;3206;42.666;23.600;2022-08-18T06:12:08;95139.28;;;22.39;100.00
6347;BME280;3206;42.666;23.600;2022-08-18T06:14:38;95137.66;;;22.45;100.00
6347;BME280;3206;42.666;23.600;2022-08-18T06:17:14;95137.06;;;22.57;100.00
6347;BME280;3206;42.666;23.600;2022-08-18T06:19:51;95140.44;;;22.42;100.00
6347;BME280;3206;42.666;23.600;2022-08-18T06:22:34;95130.78;;;22.60;100.00
6347;BME280;3206;42.666;23.600;2022-08-18T06:25:09;95134.38;;;22.77;100.00
6347;BME280;3206;42.666;23.600;2022-08-18T06:27:46;95132.44;;;22.97;100.00
6347;BME280;3206;42.666;23.600;2022-08-18T06:30:22;95137.28;;;23.08;100.00
6347;BME280;3206;42.666;23.600;2022-08-18T06:33:01;95138.03;;;23.32;100.00
6347;BME280;3206;42.666;23.600;2022-08-18T06:35:35;95139.91;;;23.54;100.00
6347;BME280;3206;42.666;23.600;2022-08-18T06:38:24;95136.41;;;23.93;100.00
6347;BME280;3206;42.666;23.600;2022-08-18T06:41:12;95140.09;;;24.18;100.00
6347;BME280;3206;42.666;23.600;2022-08-18T06:43:44;95139.44;;;24.30;100.00
6347;BME280;3206;42.666;23.600;2022-08-18T06:46:19;95134.13;;;24.39;100.00
6347;BME280;3206;42.666;23.600;2022-08-18T06:48:53;95139.28;;;24.53;100.00
6347;BME280;3206;42.666;23.600;2022-08-18T06:51:21;95147.47;;;24.53;100.00
6347;BME280;3206;42.666;23.600;2022-08-18T06:53:53;95142.88;;;24.66;100.00
6347;BME280;3206;42.666;23.600;2022-08-18T06:56:23;95133.41;;;24.55;100.00
6347;BME280;3206;42.666;23.600;2022-08-18T06:58:51;95129.53;;;24.68;100.00
6347;BME280;3206;42.666;23.600;2022-08-18T07:01:21;95117.69;;;24.75;100.00
6347;BME280;3206;42.666;23.600;2022-08-18T07:03:51;95120.50;;;24.55;100.00
6347;BME280;3206;42.666;23.600;2022-08-18T07:06:28;95114.69;;;24.69;100.00
6347;BME280;3206;42.666;23.600;2022-08-18T07:09:18;95118.94;;;24.70;100.00
6347;BME280;3206;42.666;23.600;2022-08-18T07:11:58;95119.53;;;24.78;100.00
6347;BME280;3206;42.666;23.600;2022-08-18T07:14:25;95121.75;;;24.83;100.00
6347;BME280;3206;42.666;23.600;2022-08-18T07:17:05;95122.16;;;24.97;100.00
6347;BME280;3206;42.666;23.600;2022-08-18T07:19:32;95122.16;;;24.97;100.00
6347;BME280;3206;42.666;23.600;2022-08-18T07:22:02;95109.97;;;25.14;100.00
6347;BME280;3206;42.666;23.600;2022-08-18T07:24:33;95113.31;;;25.21;100.00
6347;BME280;3206;42.666;23.600;2022-08-18T07:27:05;95111.28;;;25.38;100.00
6347;BME280;3206;42.666;23.600;2022-08-18T07:29:35;95113.19;;;25.53;100.00
6347;BME280;3206;42.666;23.600;2022-08-18T07:32:06;95113.63;;;25.64;100.00
6347;BME280;3206;42.666;23.600;2022-08-18T07:34:38;95107.44;;;25.89;100.00
6347;BME280;3206;42.666;23.600;2022-08-18T07:37:09;95102.53;;;26.09;100.00
6347;BME280;3206;42.666;23.600;2022-08-18T07:39:42;95095.00;;;26.13;100.00
6347;BME280;3206;42.666;23.600;2022-08-18T07:42:15;95104.19;;;26.19;100.00
6347;BME280;3206;42.666;23.600;2022-08-18T07:44:49;95104.69;;;26.39;100.00
6347;BME280;3206;42.666;23.600;2022-08-18T07:47:24;95102.63;;;26.30;100.00
6347;BME280;3206;42.666;23.600;2022-08-18T07:49:52;95086.00;;;26.12;100.00
6347;BME280;3206;42.666;23.600;2022-08-18T07:52:25;95102.19;;;26.32;100.00
6347;BME280;3206;42.666;23.600;2022-08-18T07:55:03;95095.63;;;26.54;100.00
6347;BME280;3206;42.666;23.600;2022-08-18T07:57:41;95096.00;;;26.78;100.00
6347;BME280;3206;42.666;23.600;2022-08-18T08:00:15;95091.31;;;27.00;100.00
6347;BME280;3206;42.666;23.600;2022-08-18T08:02:51;95097.88;;;27.15;100.00
6347;BME280;3206;42.666;23.600;2022-08-18T08:05:35;95095.25;;;27.32;100.00
6347;BME280;3206;42.666;23.600;2022-08-18T08:08:14;95088.69;;;27.30;100.00
6347;BME280;3206;42.666;23.600;2022-08-18T08:10:56;95102.50;;;27.48;100.00
6347;BME280;3206;42.666;23.600;2022-08-18T08:13:31;95092.84;;;27.65;100.00
6347;BME280;3206;42.666;23.600;2022-08-18T08:16:13;95090.59;;;27.63;100.00
6347;BME280;3206;42.666;23.600;2022-08-18T08:19:01;95099.88;;;27.87;100.00
6347;BME280;3206;42.666;23.600;2022-08-18T08:21:32;95089.38;;;27.95;99.43
6347;BME280;3206;42.666;23.600;2022-08-18T08:24:09;95081.75;;;28.29;98.77
6347;BME280;3206;42.666;23.600;2022-08-18T08:26:48;95086.41;;;28.50;99.08
6347;BME280;3206;42.666;23.600;2022-08-18T08:29:27;95069.78;;;28.63;94.93
6347;BME280;3206;42.666;23.600;2022-08-18T08:32:02;95067.22;;;28.77;94.87
6347;BME280;3206;42.666;23.600;2022-08-18T08:34:34;95073.22;;;29.03;90.05
6347;BME280;3206;42.666;23.600;2022-08-18T08:37:06;95073.19;;;29.12;82.49
6347;BME280;3206;42.666;23.600;2022-08-18T08:39:38;95071.13;;;29.84;77.38
6347;BME280;3206;42.666;23.600;2022-08-18T08:42:12;95074.13;;;31.68;65.83
6347;BME280;3206;42.666;23.600;2022-08-18T08:44:44;95059.34;;;33.03;57.02
6347;BME280;3206;42.666;23.600;2022-08-18T08:47:16;95057.94;;;33.58;53.38
6347;BME280;3206;42.666;23.600;2022-08-18T08:49:48;95061.91;;;33.52;50.89
6347;BME280;3206;42.666;23.600;2022-08-18T08:52:20;95069.84;;;33.19;51.19
6347;BME280;3206;42.666;23.600;2022-08-18T08:54:51;95059.47;;;33.34;51.33
6347;BME280;3206;42.666;23.600;2022-08-18T08:57:21;95064.31;;;32.79;50.88
6347;BME280;3206;42.666;23.600;2022-08-18T08:59:51;95065.09;;;33.00;51.60
6347;BME280;3206;42.666;23.600;2022-08-18T09:02:51;95058.84;;;33.45;48.85
6347;BME280;3206;42.666;23.600;2022-08-18T09:05:24;95064.56;;;34.54;47.81
6347;BME280;3206;42.666;23.600;2022-08-18T09:08:25;95065.84;;;33.65;47.75
6347;BME280;3206;42.666;23.600;2022-08-18T09:11:21;95058.84;;;33.45;48.15
6347;BME280;3206;42.666;23.600;2022-08-18T09:17:08;95047.09;;;33.30;48.07
6347;BME280;3206;42.666;23.600;2022-08-18T09:19:56;95041.63;;;34.59;46.67
6347;BME280;3206;42.666;23.600;2022-08-18T09:22:32;95042.34;;;34.48;45.26
6347;BME280;3206;42.666;23.600;2022-08-18T09:25:08;95047.41;;;36.43;43.48
6347;BME280;3206;42.666;23.600;2022-08-18T09:27:41;95048.03;;;35.29;43.73
6347;BME280;3206;42.666;23.600;2022-08-18T09:30:38;95045.13;;;35.70;43.21
6347;BME280;3206;42.666;23.600;2022-08-18T09:33:16;95030.38;;;37.42;40.46
6347;BME280;3206;42.666;23.600;2022-08-18T09:35:57;95026.22;;;37.65;40.03
6347;BME280;3206;42.666;23.600;2022-08-18T09:38:29;95024.53;;;37.86;39.33
6347;BME280;3206;42.666;23.600;2022-08-18T09:41:18;95001.69;;;37.93;39.13
6347;BME280;3206;42.666;23.600;2022-08-18T09:44:00;95018.09;;;38.85;36.74
6347;BME280;3206;42.666;23.600;2022-08-18T09:46:54;95012.03;;;38.33;37.83
6347;BME280;3206;42.666;23.600;2022-08-18T09:49:42;95015.44;;;39.35;35.70
6347;BME280;3206;42.666;23.600;2022-08-18T09:52:46;95015.22;;;40.01;34.57
6347;BME280;3206;42.666;23.600;2022-08-18T09:58:13;95003.28;;;40.00;33.89
6347;BME280;3206;42.666;23.600;2022-08-18T10:00:40;94994.81;;;40.63;33.52
6347;BME280;3206;42.666;23.600;2022-08-18T10:03:22;95005.78;;;40.74;33.19
6347;BME280;3206;42.666;23.600;2022-08-18T10:06:12;94989.00;;;40.87;32.92
6347;BME280;3206;42.666;23.600;2022-08-18T10:09:01;94975.00;;;41.80;32.09
6347;BME280;3206;42.666;23.600;2022-08-18T10:11:41;94978.59;;;41.21;31.34
6347;BME280;3206;42.666;23.600;2022-08-18T10:14:24;94968.66;;;38.74;34.27
6347;BME280;3206;42.666;23.600;2022-08-18T10:17:01;94977.31;;;40.00;33.03
6347;BME280;3206;42.666;23.600;2022-08-18T10:19:37;94972.16;;;41.13;32.30
6347;BME280;3206;42.666;23.600;2022-08-18T10:22:08;94964.94;;;42.05;30.92
6347;BME280;3206;42.666;23.600;2022-08-18T10:24:39;94978.47;;;42.55;30.20
6347;BME280;3206;42.666;23.600;2022-08-18T10:27:35;94973.38;;;40.53;31.36
6347;BME280;3206;42.666;23.600;2022-08-18T10:30:47;94959.34;;;39.96;32.99
6347;BME280;3206;42.666;23.600;2022-08-18T10:34:04;94957.97;;;39.15;32.55
6347;BME280;3206;42.666;23.600;2022-08-18T10:36:44;94952.78;;;39.25;32.69
6347;BME280;3206;42.666;23.600;2022-08-18T10:39:13;94955.72;;;37.70;34.57
6347;BME280;3206;42.666;23.600;2022-08-18T10:41:54;94948.97;;;37.14;34.93
6347;BME280;3206;42.666;23.600;2022-08-18T10:44:22;94947.69;;;37.56;35.92
6347;BME280;3206;42.666;23.600;2022-08-18T10:46:50;94956.06;;;37.56;34.52
6347;BME280;3206;42.666;23.600;2022-08-18T10:49:23;94948.03;;;38.05;34.37
6347;BME280;3206;42.666;23.600;2022-08-18T10:51:59;94949.44;;;36.67;36.01
6347;BME280;3206;42.666;23.600;2022-08-18T10:54:38;94951.38;;;36.88;35.58
6347;BME280;3206;42.666;23.600;2022-08-18T10:57:16;94953.66;;;38.29;34.63
6347;BME280;3206;42.666;23.600;2022-08-18T10:59:51;94953.00;;;39.64;32.85
6347;BME280;3206;42.666;23.600;2022-08-18T11:02:40;94938.88;;;38.82;33.01
6347;BME280;3206;42.666;23.600;2022-08-18T11:05:17;94933.28;;;39.01;32.08
6347;BME280;3206;42.666;23.600;2022-08-18T11:07:47;94939.66;;;39.20;31.46
6347;BME280;3206;42.666;23.600;2022-08-18T11:10:18;94936.09;;;39.38;31.40
6347;BME280;3206;42.666;23.600;2022-08-18T11:12:56;94936.34;;;39.71;30.99
6347;BME280;3206;42.666;23.600;2022-08-18T11:15:34;94934.88;;;40.79;30.42
6347;BME280;3206;42.666;23.600;2022-08-18T11:18:16;94936.72;;;40.38;30.80
6347;BME280;3206;42.666;23.600;2022-08-18T11:20:48;94928.03;;;41.14;29.43
6347;BME280;3206;42.666;23.600;2022-08-18T11:23:17;94932.84;;;41.39;28.53
6347;BME280;3206;42.666;23.600;2022-08-18T11:25:44;94931.81;;;43.88;27.12
6347;BME280;3206;42.666;23.600;2022-08-18T11:28:15;94920.28;;;42.98;27.87
6347;BME280;3206;42.666;23.600;2022-08-18T11:30:44;94917.09;;;42.11;28.25
6347;BME280;3206;42.666;23.600;2022-08-18T11:33:14;94923.31;;;41.42;28.72
6347;BME280;3206;42.666;23.600;2022-08-18T11:35:47;94921.56;;;40.46;29.50
6347;BME280;3206;42.666;23.600;2022-08-18T11:38:16;94929.94;;;40.72;29.01
6347;BME280;3206;42.666;23.600;2022-08-18T11:40:46;94916.69;;;42.62;28.52
6347;BME280;3206;42.666;23.600;2022-08-18T11:43:17;94919.34;;;43.61;27.34
6347;BME280;3206;42.666;23.600;2022-08-18T11:45:51;94917.03;;;45.02;26.01
6347;BME280;3206;42.666;23.600;2022-08-18T11:48:22;94915.56;;;46.21;24.37
6347;BME280;3206;42.666;23.600;2022-08-18T11:51:00;94905.56;;;46.28;24.16
6347;BME280;3206;42.666;23.600;2022-08-18T11:53:39;94915.47;;;46.36;24.17
6347;BME280;3206;42.666;23.600;2022-08-18T11:56:22;94912.34;;;46.49;24.37
6347;BME280;3206;42.666;23.600;2022-08-18T11:58:52;94902.38;;;45.43;24.38
6347;BME280;3206;42.666;23.600;2022-08-18T12:01:35;94893.19;;;46.23;24.31
6347;BME280;3206;42.666;23.600;2022-08-18T12:04:12;94893.13;;;46.06;23.44
6347;BME280;3206;42.666;23.600;2022-08-18T12:06:52;94896.00;;;46.98;23.42
6347;BME280;3206;42.666;23.600;2022-08-18T12:09:24;94887.88;;;48.18;22.00
6347;BME280;3206;42.666;23.600;2022-08-18T12:11:55;94889.03;;;49.26;21.33
6347;BME280;3206;42.666;23.600;2022-08-18T12:14:25;94882.88;;;49.58;21.06
6347;BME280;3206;42.666;23.600;2022-08-18T12:16:53;94880.81;;;49.40;20.52
6347;BME280;3206;42.666;23.600;2022-08-18T12:19:21;94865.59;;;48.60;20.72
6347;BME280;3206;42.666;23.600;2022-08-18T12:21:50;94868.84;;;46.03;22.27
6347;BME280;3206;42.666;23.600;2022-08-18T12:24:21;94858.50;;;44.55;23.48
6347;BME280;3206;42.666;23.600;2022-08-18T12:26:49;94875.50;;;44.11;24.02
6347;BME280;3206;42.666;23.600;2022-08-18T12:29:17;94877.75;;;44.12;24.20
6347;BME280;3206;42.666;23.600;2022-08-18T12:31:44;94864.72;;;41.31;25.58
6347;BME280;3206;42.666;23.600;2022-08-18T12:34:11;94867.69;;;42.15;25.18
6347;BME280;3206;42.666;23.600;2022-08-18T12:36:38;94868.28;;;43.35;25.38
6347;BME280;3206;42.666;23.600;2022-08-18T12:39:05;94864.16;;;44.55;23.21
6347;BME280;3206;42.666;23.600;2022-08-18T12:41:33;94865.31;;;44.45;23.29
6347;BME280;3206;42.666;23.600;2022-08-18T12:44:00;94864.97;;;43.74;23.92
6347;BME280;3206;42.666;23.600;2022-08-18T12:46:28;94865.84;;;43.39;23.88
6347;BME280;3206;42.666;23.600;2022-08-18T12:48:55;94858.53;;;43.36;24.43
6347;BME280;3206;42.666;23.600;2022-08-18T12:51:22;94863.81;;;44.22;23.83
6347;BME280;3206;42.666;23.600;2022-08-18T12:53:49;94860.69;;;42.64;23.41
6347;BME280;3206;42.666;23.600;2022-08-18T12:56:20;94860.31;;;41.43;24.79
6347;BME280;3206;42.666;23.600;2022-08-18T12:58:49;94867.03;;;40.47;25.62
6347;BME280;3206;42.666;23.600;2022-08-18T13:01:16;94859.03;;;40.64;25.21
6347;BME280;3206;42.666;23.600;2022-08-18T13:03:44;94852.13;;;41.12;25.04
6347;BME280;3206;42.666;23.600;2022-08-18T13:06:11;94844.72;;;42.95;24.08
6347;BME280;3206;42.666;23.600;2022-08-18T13:08:39;94848.66;;;44.02;23.16
6347;BME280;3206;42.666;23.600;2022-08-18T13:11:06;94850.97;;;46.25;21.64
6347;BME280;3206;42.666;23.600;2022-08-18T13:13:35;94845.72;;;47.33;21.62
6347;BME280;3206;42.666;23.600;2022-08-18T13:16:04;94830.34;;;46.32;20.97
6347;BME280;3206;42.666;23.600;2022-08-18T13:18:32;94838.25;;;46.34;21.05
6347;BME280;3206;42.666;23.600;2022-08-18T13:20:59;94846.16;;;44.51;21.77
6347;BME280;3206;42.666;23.600;2022-08-18T13:23:27;94844.88;;;44.91;21.97
6347;BME280;3206;42.666;23.600;2022-08-18T13:25:55;94841.31;;;46.45;21.92
6347;BME280;3206;42.666;23.600;2022-08-18T13:28:23;94839.31;;;47.59;21.13
6347;BME280;3206;42.666;23.600;2022-08-18T13:30:49;94832.72;;;48.28;21.05
6347;BME280;3206;42.666;23.600;2022-08-18T13:33:17;94830.78;;;48.50;19.79
6347;BME280;3206;42.666;23.600;2022-08-18T13:35:44;94832.72;;;47.56;20.62
6347;BME280;3206;42.666;23.600;2022-08-18T13:38:13;94823.59;;;47.39;20.50